sensor_id;sensor_type;location;lat;lon;timestamp;P1;durP1;ratioP1;P2;durP2;ratioP2
52858;SDS011;38721;53.098;6.596;2023-04-25T00:01:45;20.45;;;5.40;;
52858;SDS011;38721;53.098;6.596;2023-04-25T00:04:14;22.35;;;4.82;;
52858;SDS011;38721;53.098;6.596;2023-04-25T00:06:40;23.42;;;5.05;;
52858;SDS011;38721;53.098;6.596;2023-04-25T00:09:06;13.80;;;4.00;;
52858;SDS011;38721;53.098;6.596;2023-04-25T00:11:36;14.77;;;4.82;;
52858;SDS011;38721;53.098;6.596;2023-04-25T00:14:02;22.85;;;4.85;;
52858;SDS011;38721;53.098;6.596;2023-04-25T00:16:28;15.60;;;4.10;;
52858;SDS011;38721;53.098;6.596;2023-04-25T00:18:55;17.23;;;3.85;;
52858;SDS011;38721;53.098;6.596;2023-04-25T00:21:21;13.68;;;4.50;;
52858;SDS011;38721;53.098;6.596;2023-04-25T00:23:52;17.50;;;4.88;;
52858;SDS011;38721;53.098;6.596;2023-04-25T00:26:18;16.70;;;4.03;;
52858;SDS011;38721;53.098;6.596;2023-04-25T00:28:43;17.58;;;4.40;;
52858;SDS011;38721;53.098;6.596;2023-04-25T00:31:10;17.67;;;4.45;;
52858;SDS011;38721;53.098;6.596;2023-04-25T00:33:35;18.55;;;4.43;;
52858;SDS011;38721;53.098;6.596;2023-04-25T00:36:01;20.33;;;4.55;;
52858;SDS011;38721;53.098;6.596;2023-04-25T00:38:30;16.85;;;4.20;;
52858;SDS011;38721;53.098;6.596;2023-04-25T00:40:55;18.73;;;4.18;;
52858;SDS011;38721;53.098;6.596;2023-04-25T00:43:22;18.20;;;4.25;;
52858;SDS011;38721;53.098;6.596;2023-04-25T00:45:51;12.80;;;4.45;;
52858;SDS011;38721;53.098;6.596;2023-04-25T00:48:17;14.27;;;3.92;;
52858;SDS011;38721;53.098;6.596;2023-04-25T00:50:49;17.60;;;3.88;;
52858;SDS011;38721;53.098;6.596;2023-04-25T00:53:19;15.18;;;3.80;;
52858;SDS011;38721;53.098;6.596;2023-04-25T00:55:52;19.08;;;3.90;;
52858;SDS011;38721;53.098;6.596;2023-04-25T00:58:18;12.65;;;3.38;;
52858;SDS011;38721;53.098;6.596;2023-04-25T01:00:46;16.90;;;3.55;;
52858;SDS011;38721;53.098;6.596;2023-04-25T01:03:16;13.93;;;3.90;;
52858;SDS011;38721;53.098;6.596;2023-04-25T01:05:44;16.13;;;4.10;;
52858;SDS011;38721;53.098;6.596;2023-04-25T01:08:10;15.57;;;3.72;;
52858;SDS011;38721;53.098;6.596;2023-04-25T01:10:38;24.13;;;4.55;;
52858;SDS011;38721;53.098;6.596;2023-04-25T01:13:03;18.80;;;4.15;;
52858;SDS011;38721;53.098;6.596;2023-04-25T01:15:29;11.88;;;3.75;;
52858;SDS011;38721;53.098;6.596;2023-04-25T01:17:58;18.27;;;4.10;;
52858;SDS011;38721;53.098;6.596;2023-04-25T01:20:25;14.70;;;3.33;;
52858;SDS011;38721;53.098;6.596;2023-04-25T01:22:53;17.88;;;3.63;;
52858;SDS011;38721;53.098;6.596;2023-04-25T01:25:20;13.48;;;3.88;;
52858;SDS011;38721;53.098;6.596;2023-04-25T01:27:46;11.00;;;2.92;;
52858;SDS011;38721;53.098;6.596;2023-04-25T01:30:14;10.27;;;3.35;;
52858;SDS011;38721;53.098;6.596;2023-04-25T01:32:41;14.77;;;3.45;;
52858;SDS011;38721;53.098;6.596;2023-04-25T01:35:08;13.40;;;2.85;;
52858;SDS011;38721;53.098;6.596;2023-04-25T01:37:44;10.52;;;2.92;;
52858;SDS011;38721;53.098;6.596;2023-04-25T01:42:37;11.75;;;2.95;;
52858;SDS011;38721;53.098;6.596;2023-04-25T01:45:05;10.38;;;2.67;;
52858;SDS011;38721;53.098;6.596;2023-04-25T01:47:31;16.05;;;3.08;;
52858;SDS011;38721;53.098;6.596;2023-04-25T01:50:00;10.30;;;2.95;;
52858;SDS011;38721;53.098;6.596;2023-04-25T01:52:26;13.50;;;3.17;;
52858;SDS011;38721;53.098;6.596;2023-04-25T01:54:52;11.07;;;2.55;;
52858;SDS011;38721;53.098;6.596;2023-04-25T01:57:19;11.98;;;2.85;;
52858;SDS011;38721;53.098;6.596;2023-04-25T01:59:45;15.77;;;3.78;;
52858;SDS011;38721;53.098;6.596;2023-04-25T02:02:11;12.07;;;2.85;;
52858;SDS011;38721;53.098;6.596;2023-04-25T02:04:37;8.93;;;2.55;;
52858;SDS011;38721;53.098;6.596;2023-04-25T02:07:03;15.07;;;3.97;;
52858;SDS011;38721;53.098;6.596;2023-04-25T02:09:28;11.60;;;2.55;;
52858;SDS011;38721;53.098;6.596;2023-04-25T02:11:54;13.77;;;2.67;;
52858;SDS011;38721;53.098;6.596;2023-04-25T02:14:20;13.93;;;2.63;;
52858;SDS011;38721;53.098;6.596;2023-04-25T02:16:46;13.63;;;2.58;;
52858;SDS011;38721;53.098;6.596;2023-04-25T02:19:12;13.63;;;2.53;;
52858;SDS011;38721;53.098;6.596;2023-04-25T02:21:37;15.88;;;2.30;;
52858;SDS011;38721;53.098;6.596;2023-04-25T02:24:03;9.77;;;3.08;;
52858;SDS011;38721;53.098;6.596;2023-04-25T02:26:29;13.52;;;3.03;;
52858;SDS011;38721;53.098;6.596;2023-04-25T02:28:58;12.70;;;2.42;;
52858;SDS011;38721;53.098;6.596;2023-04-25T02:31:24;19.77;;;3.00;;
52858;SDS011;38721;53.098;6.596;2023-04-25T02:33:51;13.43;;;3.45;;
52858;SDS011;38721;53.098;6.596;2023-04-25T02:36:16;11.65;;;2.65;;
52858;SDS011;38721;53.098;6.596;2023-04-25T02:38:42;14.35;;;2.60;;
52858;SDS011;38721;53.098;6.596;2023-04-25T02:41:10;14.10;;;2.85;;
52858;SDS011;38721;53.098;6.596;2023-04-25T02:43:36;11.32;;;2.22;;
52858;SDS011;38721;53.098;6.596;2023-04-25T02:46:02;13.60;;;2.70;;
52858;SDS011;38721;53.098;6.596;2023-04-25T02:48:31;13.15;;;2.75;;
52858;SDS011;38721;53.098;6.596;2023-04-25T02:50:57;19.75;;;3.47;;
52858;SDS011;38721;53.098;6.596;2023-04-25T02:53:22;11.80;;;2.78;;
52858;SDS011;38721;53.098;6.596;2023-04-25T02:55:51;13.25;;;2.75;;
52858;SDS011;38721;53.098;6.596;2023-04-25T02:58:17;15.68;;;3.78;;
52858;SDS011;38721;53.098;6.596;2023-04-25T03:00:43;11.85;;;2.45;;
52858;SDS011;38721;53.098;6.596;2023-04-25T03:03:09;9.85;;;2.97;;
52858;SDS011;38721;53.098;6.596;2023-04-25T03:05:35;14.18;;;2.88;;
52858;SDS011;38721;53.098;6.596;2023-04-25T03:08:01;13.18;;;3.05;;
52858;SDS011;38721;53.098;6.596;2023-04-25T03:10:30;13.48;;;2.60;;
52858;SDS011;38721;53.098;6.596;2023-04-25T03:12:55;13.10;;;3.03;;
52858;SDS011;38721;53.098;6.596;2023-04-25T03:15:21;13.15;;;2.53;;
52858;SDS011;38721;53.098;6.596;2023-04-25T03:17:47;15.40;;;3.35;;
52858;SDS011;38721;53.098;6.596;2023-04-25T03:20:12;9.13;;;2.33;;
52858;SDS011;38721;53.098;6.596;2023-04-25T03:22:40;11.70;;;2.60;;
52858;SDS011;38721;53.098;6.596;2023-04-25T03:25:06;13.57;;;3.35;;
52858;SDS011;38721;53.098;6.596;2023-04-25T03:27:33;12.15;;;2.28;;
52858;SDS011;38721;53.098;6.596;2023-04-25T03:29:59;11.73;;;2.78;;
52858;SDS011;38721;53.098;6.596;2023-04-25T03:32:24;13.95;;;2.80;;
52858;SDS011;38721;53.098;6.596;2023-04-25T03:34:50;11.73;;;2.40;;
52858;SDS011;38721;53.098;6.596;2023-04-25T03:37:18;11.93;;;2.53;;
52858;SDS011;38721;53.098;6.596;2023-04-25T03:39:44;14.40;;;2.85;;
52858;SDS011;38721;53.098;6.596;2023-04-25T03:42:10;10.43;;;2.30;;
52858;SDS011;38721;53.098;6.596;2023-04-25T03:44:38;13.20;;;2.33;;
52858;SDS011;38721;53.098;6.596;2023-04-25T03:47:04;10.48;;;2.15;;
52858;SDS011;38721;53.098;6.596;2023-04-25T03:49:30;12.20;;;2.60;;
52858;SDS011;38721;53.098;6.596;2023-04-25T03:51:56;12.95;;;2.70;;
52858;SDS011;38721;53.098;6.596;2023-04-25T03:54:22;9.35;;;2.30;;
52858;SDS011;38721;53.098;6.596;2023-04-25T03:56:47;11.35;;;2.45;;
52858;SDS011;38721;53.098;6.596;2023-04-25T03:59:13;10.52;;;2.67;;
52858;SDS011;38721;53.098;6.596;2023-04-25T04:01:39;15.65;;;2.60;;
52858;SDS011;38721;53.098;6.596;2023-04-25T04:04:05;10.77;;;2.72;;
52858;SDS011;38721;53.098;6.596;2023-04-25T04:06:30;13.45;;;2.25;;
52858;SDS011;38721;53.098;6.596;2023-04-25T04:08:56;13.40;;;2.83;;
52858;SDS011;38721;53.098;6.596;2023-04-25T04:11:22;8.57;;;2.70;;
52858;SDS011;38721;53.098;6.596;2023-04-25T04:13:48;10.82;;;2.40;;
52858;SDS011;38721;53.098;6.596;2023-04-25T04:16:13;13.57;;;2.10;;
52858;SDS011;38721;53.098;6.596;2023-04-25T04:18:39;10.65;;;3.58;;
52858;SDS011;38721;53.098;6.596;2023-04-25T04:21:05;9.07;;;2.67;;
52858;SDS011;38721;53.098;6.596;2023-04-25T04:23:32;7.03;;;2.20;;
52858;SDS011;38721;53.098;6.596;2023-04-25T04:25:58;7.95;;;1.83;;
52858;SDS011;38721;53.098;6.596;2023-04-25T04:28:24;11.10;;;2.20;;
52858;SDS011;38721;53.098;6.596;2023-04-25T04:30:51;10.55;;;2.53;;
52858;SDS011;38721;53.098;6.596;2023-04-25T04:33:17;12.10;;;3.17;;
52858;SDS011;38721;53.098;6.596;2023-04-25T04:35:46;15.13;;;2.67;;
52858;SDS011;38721;53.098;6.596;2023-04-25T04:38:13;10.98;;;2.60;;
52858;SDS011;38721;53.098;6.596;2023-04-25T04:40:40;11.63;;;2.75;;
52858;SDS011;38721;53.098;6.596;2023-04-25T04:43:08;11.18;;;2.80;;
52858;SDS011;38721;53.098;6.596;2023-04-25T04:45:36;9.02;;;2.33;;
52858;SDS011;38721;53.098;6.596;2023-04-25T04:48:06;8.90;;;2.50;;
52858;SDS011;38721;53.098;6.596;2023-04-25T04:50:32;11.65;;;3.03;;
52858;SDS011;38721;53.098;6.596;2023-04-25T04:53:03;18.33;;;3.38;;
52858;SDS011;38721;53.098;6.596;2023-04-25T04:55:30;8.70;;;2.45;;
52858;SDS011;38721;53.098;6.596;2023-04-25T04:57:55;7.00;;;2.33;;
52858;SDS011;38721;53.098;6.596;2023-04-25T05:00:21;11.88;;;2.97;;
52858;SDS011;38721;53.098;6.596;2023-04-25T05:02:47;8.80;;;2.10;;
52858;SDS011;38721;53.098;6.596;2023-04-25T05:05:12;10.80;;;1.90;;
52858;SDS011;38721;53.098;6.596;2023-04-25T05:07:38;14.38;;;2.67;;
52858;SDS011;38721;53.098;6.596;2023-04-25T05:10:04;11.23;;;2.47;;
52858;SDS011;38721;53.098;6.596;2023-04-25T05:12:30;12.82;;;2.83;;
52858;SDS011;38721;53.098;6.596;2023-04-25T05:14:56;14.38;;;3.10;;
52858;SDS011;38721;53.098;6.596;2023-04-25T05:17:21;10.05;;;2.60;;
52858;SDS011;38721;53.098;6.596;2023-04-25T05:19:50;12.98;;;2.40;;
52858;SDS011;38721;53.098;6.596;2023-04-25T05:22:16;13.60;;;2.58;;
52858;SDS011;38721;53.098;6.596;2023-04-25T05:24:41;12.38;;;2.88;;
52858;SDS011;38721;53.098;6.596;2023-04-25T05:27:07;13.38;;;3.03;;
52858;SDS011;38721;53.098;6.596;2023-04-25T05:29:33;11.15;;;3.13;;
52858;SDS011;38721;53.098;6.596;2023-04-25T05:31:59;14.13;;;2.55;;
52858;SDS011;38721;53.098;6.596;2023-04-25T05:34:24;8.57;;;2.60;;
52858;SDS011;38721;53.098;6.596;2023-04-25T05:36:52;10.63;;;2.67;;
52858;SDS011;38721;53.098;6.596;2023-04-25T05:39:18;10.13;;;2.65;;
52858;SDS011;38721;53.098;6.596;2023-04-25T05:41:43;12.50;;;2.80;;
52858;SDS011;38721;53.098;6.596;2023-04-25T05:44:09;11.88;;;2.80;;
52858;SDS011;38721;53.098;6.596;2023-04-25T05:46:35;14.48;;;2.88;;
52858;SDS011;38721;53.098;6.596;2023-04-25T05:49:01;13.02;;;2.78;;
52858;SDS011;38721;53.098;6.596;2023-04-25T05:51:27;8.57;;;2.47;;
52858;SDS011;38721;53.098;6.596;2023-04-25T05:53:53;13.48;;;2.47;;
52858;SDS011;38721;53.098;6.596;2023-04-25T05:56:18;12.68;;;2.78;;
52858;SDS011;38721;53.098;6.596;2023-04-25T05:58:47;9.05;;;2.50;;
52858;SDS011;38721;53.098;6.596;2023-04-25T06:01:12;11.55;;;2.08;;
52858;SDS011;38721;53.098;6.596;2023-04-25T06:03:39;11.73;;;2.45;;
52858;SDS011;38721;53.098;6.596;2023-04-25T06:06:07;11.07;;;2.20;;
52858;SDS011;38721;53.098;6.596;2023-04-25T06:08:33;11.75;;;2.67;;
52858;SDS011;38721;53.098;6.596;2023-04-25T06:10:59;9.25;;;2.58;;
52858;SDS011;38721;53.098;6.596;2023-04-25T06:13:25;11.55;;;2.50;;
52858;SDS011;38721;53.098;6.596;2023-04-25T06:15:51;10.07;;;2.15;;
52858;SDS011;38721;53.098;6.596;2023-04-25T06:18:16;11.85;;;3.08;;
52858;SDS011;38721;53.098;6.596;2023-04-25T06:20:42;11.20;;;2.63;;
52858;SDS011;38721;53.098;6.596;2023-04-25T06:23:08;9.77;;;2.60;;
52858;SDS011;38721;53.098;6.596;2023-04-25T06:25:33;8.07;;;2.13;;
52858;SDS011;38721;53.098;6.596;2023-04-25T06:28:02;12.32;;;2.53;;
52858;SDS011;38721;53.098;6.596;2023-04-25T06:30:28;8.57;;;2.50;;
52858;SDS011;38721;53.098;6.596;2023-04-25T06:32:54;10.93;;;2.40;;
52858;SDS011;38721;53.098;6.596;2023-04-25T06:35:20;11.65;;;2.58;;
52858;SDS011;38721;53.098;6.596;2023-04-25T06:37:46;7.88;;;1.60;;
52858;SDS011;38721;53.098;6.596;2023-04-25T06:40:12;8.25;;;1.92;;
52858;SDS011;38721;53.098;6.596;2023-04-25T06:42:37;17.50;;;2.03;;
52858;SDS011;38721;53.098;6.596;2023-04-25T06:45:03;8.82;;;1.90;;
52858;SDS011;38721;53.098;6.596;2023-04-25T06:47:29;10.20;;;1.95;;
52858;SDS011;38721;53.098;6.596;2023-04-25T06:49:58;10.88;;;2.38;;
52858;SDS011;38721;53.098;6.596;2023-04-25T06:52:23;7.88;;;1.70;;
52858;SDS011;38721;53.098;6.596;2023-04-25T06:54:49;9.35;;;1.92;;
52858;SDS011;38721;53.098;6.596;2023-04-25T06:57:14;9.43;;;1.75;;
52858;SDS011;38721;53.098;6.596;2023-04-25T06:59:40;11.15;;;1.63;;
52858;SDS011;38721;53.098;6.596;2023-04-25T07:02:06;7.78;;;2.00;;
52858;SDS011;38721;53.098;6.596;2023-04-25T07:04:31;14.82;;;2.30;;
52858;SDS011;38721;53.098;6.596;2023-04-25T07:06:57;8.82;;;1.92;;
52858;SDS011;38721;53.098;6.596;2023-04-25T07:09:26;6.88;;;2.20;;
52858;SDS011;38721;53.098;6.596;2023-04-25T07:11:51;5.75;;;1.63;;
52858;SDS011;38721;53.098;6.596;2023-04-25T07:14:17;6.22;;;1.90;;
52858;SDS011;38721;53.098;6.596;2023-04-25T07:16:43;8.75;;;2.00;;
52858;SDS011;38721;53.098;6.596;2023-04-25T07:19:08;12.25;;;2.10;;
52858;SDS011;38721;53.098;6.596;2023-04-25T07:21:34;7.07;;;2.00;;
52858;SDS011;38721;53.098;6.596;2023-04-25T07:24:01;4.85;;;1.35;;
52858;SDS011;38721;53.098;6.596;2023-04-25T07:26:29;10.98;;;1.52;;
52858;SDS011;38721;53.098;6.596;2023-04-25T07:28:55;8.40;;;1.77;;
52858;SDS011;38721;53.098;6.596;2023-04-25T07:31:21;9.20;;;1.70;;
52858;SDS011;38721;53.098;6.596;2023-04-25T07:33:47;6.80;;;1.50;;
52858;SDS011;38721;53.098;6.596;2023-04-25T07:36:13;5.20;;;1.67;;
52858;SDS011;38721;53.098;6.596;2023-04-25T07:38:40;4.97;;;1.80;;
52858;SDS011;38721;53.098;6.596;2023-04-25T07:41:06;9.55;;;1.70;;
52858;SDS011;38721;53.098;6.596;2023-04-25T07:43:31;6.00;;;1.67;;
52858;SDS011;38721;53.098;6.596;2023-04-25T07:45:57;6.45;;;2.03;;
52858;SDS011;38721;53.098;6.596;2023-04-25T07:48:23;4.22;;;1.42;;
52858;SDS011;38721;53.098;6.596;2023-04-25T07:50:48;11.95;;;1.85;;
52858;SDS011;38721;53.098;6.596;2023-04-25T07:53:14;7.47;;;1.52;;
52858;SDS011;38721;53.098;6.596;2023-04-25T07:55:41;7.85;;;2.15;;
52858;SDS011;38721;53.098;6.596;2023-04-25T07:58:07;14.40;;;3.60;;
52858;SDS011;38721;53.098;6.596;2023-04-25T08:00:33;9.45;;;1.48;;
52858;SDS011;38721;53.098;6.596;2023-04-25T08:02:59;5.38;;;1.75;;
52858;SDS011;38721;53.098;6.596;2023-04-25T08:05:25;5.05;;;1.33;;
52858;SDS011;38721;53.098;6.596;2023-04-25T08:07:51;8.77;;;1.60;;
52858;SDS011;38721;53.098;6.596;2023-04-25T08:10:16;7.53;;;1.88;;
52858;SDS011;38721;53.098;6.596;2023-04-25T08:12:42;6.05;;;1.42;;
52858;SDS011;38721;53.098;6.596;2023-04-25T08:15:08;6.32;;;1.60;;
52858;SDS011;38721;53.098;6.596;2023-04-25T08:17:34;7.85;;;1.92;;
52858;SDS011;38721;53.098;6.596;2023-04-25T08:20:00;7.82;;;1.60;;
52858;SDS011;38721;53.098;6.596;2023-04-25T08:22:28;6.95;;;1.40;;
52858;SDS011;38721;53.098;6.596;2023-04-25T08:24:55;7.00;;;1.40;;
52858;SDS011;38721;53.098;6.596;2023-04-25T08:27:20;3.75;;;1.10;;
52858;SDS011;38721;53.098;6.596;2023-04-25T08:29:46;3.90;;;0.95;;
52858;SDS011;38721;53.098;6.596;2023-04-25T08:32:12;3.88;;;1.10;;
52858;SDS011;38721;53.098;6.596;2023-04-25T08:34:38;3.92;;;1.10;;
52858;SDS011;38721;53.098;6.596;2023-04-25T08:37:13;3.17;;;1.02;;
52858;SDS011;38721;53.098;6.596;2023-04-25T08:39:38;3.80;;;1.30;;
52858;SDS011;38721;53.098;6.596;2023-04-25T08:42:07;4.55;;;1.50;;
52858;SDS011;38721;53.098;6.596;2023-04-25T08:44:33;4.07;;;0.98;;
52858;SDS011;38721;53.098;6.596;2023-04-25T08:47:01;5.47;;;1.20;;
52858;SDS011;38721;53.098;6.596;2023-04-25T08:49:34;4.32;;;1.20;;
52858;SDS011;38721;53.098;6.596;2023-04-25T08:52:00;3.95;;;1.13;;
52858;SDS011;38721;53.098;6.596;2023-04-25T08:54:30;2.58;;;0.90;;
52858;SDS011;38721;53.098;6.596;2023-04-25T08:56:57;2.70;;;0.73;;
52858;SDS011;38721;53.098;6.596;2023-04-25T08:59:26;2.78;;;0.93;;
52858;SDS011;38721;53.098;6.596;2023-04-25T09:01:56;6.30;;;1.38;;
52858;SDS011;38721;53.098;6.596;2023-04-25T09:04:25;2.25;;;0.70;;
52858;SDS011;38721;53.098;6.596;2023-04-25T09:06:51;2.08;;;0.90;;
52858;SDS011;38721;53.098;6.596;2023-04-25T09:09:19;4.75;;;1.08;;
52858;SDS011;38721;53.098;6.596;2023-04-25T09:11:44;5.32;;;0.95;;
52858;SDS011;38721;53.098;6.596;2023-04-25T09:19:38;5.75;;;1.30;;
52858;SDS011;38721;53.098;6.596;2023-04-25T09:22:05;4.72;;;1.20;;
52858;SDS011;38721;53.098;6.596;2023-04-25T09:27:09;5.65;;;1.30;;
52858;SDS011;38721;53.098;6.596;2023-04-25T09:29:36;9.43;;;1.70;;
52858;SDS011;38721;53.098;6.596;2023-04-25T09:32:14;9.10;;;1.35;;
52858;SDS011;38721;53.098;6.596;2023-04-25T09:34:48;7.22;;;1.60;;
52858;SDS011;38721;53.098;6.596;2023-04-25T09:39:52;6.18;;;1.48;;
52858;SDS011;38721;53.098;6.596;2023-04-25T09:42:25;6.63;;;1.30;;
52858;SDS011;38721;53.098;6.596;2023-04-25T09:44:56;7.78;;;2.03;;
52858;SDS011;38721;53.098;6.596;2023-04-25T09:47:22;8.02;;;1.60;;
52858;SDS011;38721;53.098;6.596;2023-04-25T09:49:50;6.28;;;1.50;;
52858;SDS011;38721;53.098;6.596;2023-04-25T09:52:17;9.73;;;2.03;;
52858;SDS011;38721;53.098;6.596;2023-04-25T09:54:45;8.02;;;1.67;;
52858;SDS011;38721;53.098;6.596;2023-04-25T09:57:22;4.78;;;1.70;;
52858;SDS011;38721;53.098;6.596;2023-04-25T09:59:52;6.55;;;2.00;;
52858;SDS011;38721;53.098;6.596;2023-04-25T10:02:21;6.05;;;1.80;;
52858;SDS011;38721;53.098;6.596;2023-04-25T10:04:54;7.50;;;1.80;;
52858;SDS011;38721;53.098;6.596;2023-04-25T10:07:22;9.05;;;2.03;;
52858;SDS011;38721;53.098;6.596;2023-04-25T10:09:52;4.55;;;1.30;;
52858;SDS011;38721;53.098;6.596;2023-04-25T10:12:24;6.25;;;1.27;;
52858;SDS011;38721;53.098;6.596;2023-04-25T10:14:51;4.50;;;1.23;;
52858;SDS011;38721;53.098;6.596;2023-04-25T10:17:18;5.65;;;1.40;;
52858;SDS011;38721;53.098;6.596;2023-04-25T10:19:48;5.75;;;2.03;;
52858;SDS011;38721;53.098;6.596;2023-04-25T10:22:16;7.55;;;2.35;;
52858;SDS011;38721;53.098;6.596;2023-04-25T10:24:45;7.43;;;1.75;;
52858;SDS011;38721;53.098;6.596;2023-04-25T10:27:12;6.05;;;1.52;;
52858;SDS011;38721;53.098;6.596;2023-04-25T10:29:38;15.15;;;2.42;;
52858;SDS011;38721;53.098;6.596;2023-04-25T10:32:07;6.95;;;1.80;;
52858;SDS011;38721;53.098;6.596;2023-04-25T10:34:43;9.40;;;2.03;;
52858;SDS011;38721;53.098;6.596;2023-04-25T10:37:12;5.65;;;1.35;;
52858;SDS011;38721;53.098;6.596;2023-04-25T10:39:39;14.48;;;2.83;;
52858;SDS011;38721;53.098;6.596;2023-04-25T10:42:06;9.35;;;1.73;;
52858;SDS011;38721;53.098;6.596;2023-04-25T10:44:33;10.10;;;2.15;;
52858;SDS011;38721;53.098;6.596;2023-04-25T10:47:00;10.30;;;1.98;;
52858;SDS011;38721;53.098;6.596;2023-04-25T10:49:36;10.40;;;2.08;;
52858;SDS011;38721;53.098;6.596;2023-04-25T10:55:03;6.60;;;1.60;;
52858;SDS011;38721;53.098;6.596;2023-04-25T10:57:42;5.72;;;1.50;;
52858;SDS011;38721;53.098;6.596;2023-04-25T11:00:18;9.38;;;1.95;;
52858;SDS011;38721;53.098;6.596;2023-04-25T11:02:47;7.53;;;2.20;;
52858;SDS011;38721;53.098;6.596;2023-04-25T11:05:24;7.10;;;2.17;;
52858;SDS011;38721;53.098;6.596;2023-04-25T11:08:01;7.15;;;1.98;;
52858;SDS011;38721;53.098;6.596;2023-04-25T11:10:31;7.38;;;2.40;;
52858;SDS011;38721;53.098;6.596;2023-04-25T11:13:00;7.15;;;1.88;;
52858;SDS011;38721;53.098;6.596;2023-04-25T11:15:26;9.82;;;1.90;;
52858;SDS011;38721;53.098;6.596;2023-04-25T11:17:52;9.43;;;2.03;;
52858;SDS011;38721;53.098;6.596;2023-04-25T11:20:18;5.78;;;1.52;;
52858;SDS011;38721;53.098;6.596;2023-04-25T11:22:44;11.27;;;1.80;;
52858;SDS011;38721;53.098;6.596;2023-04-25T11:25:11;6.28;;;1.90;;
52858;SDS011;38721;53.098;6.596;2023-04-25T11:27:38;7.20;;;1.70;;
52858;SDS011;38721;53.098;6.596;2023-04-25T11:30:17;6.55;;;1.52;;
52858;SDS011;38721;53.098;6.596;2023-04-25T11:32:43;5.82;;;1.73;;
52858;SDS011;38721;53.098;6.596;2023-04-25T11:35:10;7.60;;;1.50;;
52858;SDS011;38721;53.098;6.596;2023-04-25T11:37:36;10.18;;;1.42;;
52858;SDS011;38721;53.098;6.596;2023-04-25T11:40:05;4.70;;;1.13;;
52858;SDS011;38721;53.098;6.596;2023-04-25T11:42:46;9.45;;;2.05;;
52858;SDS011;38721;53.098;6.596;2023-04-25T11:45:13;4.72;;;1.48;;
52858;SDS011;38721;53.098;6.596;2023-04-25T11:47:40;7.20;;;1.88;;
52858;SDS011;38721;53.098;6.596;2023-04-25T11:50:06;5.90;;;1.63;;
52858;SDS011;38721;53.098;6.596;2023-04-25T11:52:40;4.30;;;1.30;;
52858;SDS011;38721;53.098;6.596;2023-04-25T11:55:13;4.40;;;1.40;;
52858;SDS011;38721;53.098;6.596;2023-04-25T11:57:40;4.75;;;1.50;;
52858;SDS011;38721;53.098;6.596;2023-04-25T12:02:34;6.63;;;1.65;;
52858;SDS011;38721;53.098;6.596;2023-04-25T12:05:01;4.20;;;1.27;;
52858;SDS011;38721;53.098;6.596;2023-04-25T12:07:34;6.68;;;1.65;;
52858;SDS011;38721;53.098;6.596;2023-04-25T12:10:08;7.80;;;1.80;;
52858;SDS011;38721;53.098;6.596;2023-04-25T12:12:41;6.10;;;1.30;;
52858;SDS011;38721;53.098;6.596;2023-04-25T12:15:11;3.80;;;1.13;;
52858;SDS011;38721;53.098;6.596;2023-04-25T12:17:48;8.38;;;2.30;;
52858;SDS011;38721;53.098;6.596;2023-04-25T12:20:16;8.27;;;1.83;;
52858;SDS011;38721;53.098;6.596;2023-04-25T12:22:43;7.38;;;1.70;;
52858;SDS011;38721;53.098;6.596;2023-04-25T12:25:11;7.38;;;1.65;;
52858;SDS011;38721;53.098;6.596;2023-04-25T12:28:08;8.23;;;1.70;;
52858;SDS011;38721;53.098;6.596;2023-04-25T12:33:30;10.63;;;1.60;;
52858;SDS011;38721;53.098;6.596;2023-04-25T12:36:00;5.93;;;1.63;;
52858;SDS011;38721;53.098;6.596;2023-04-25T12:38:36;9.93;;;2.17;;
52858;SDS011;38721;53.098;6.596;2023-04-25T12:41:05;5.90;;;1.58;;
52858;SDS011;38721;53.098;6.596;2023-04-25T12:43:32;4.78;;;1.63;;
52858;SDS011;38721;53.098;6.596;2023-04-25T12:45:58;6.55;;;1.30;;
52858;SDS011;38721;53.098;6.596;2023-04-25T12:48:23;4.53;;;1.25;;
52858;SDS011;38721;53.098;6.596;2023-04-25T12:50:50;5.10;;;1.30;;
52858;SDS011;38721;53.098;6.596;2023-04-25T12:53:20;5.32;;;2.08;;
52858;SDS011;38721;53.098;6.596;2023-04-25T12:55:50;7.03;;;1.40;;
52858;SDS011;38721;53.098;6.596;2023-04-25T12:58:18;7.53;;;1.60;;
52858;SDS011;38721;53.098;6.596;2023-04-25T13:00:45;6.65;;;1.70;;
52858;SDS011;38721;53.098;6.596;2023-04-25T13:03:11;7.55;;;1.52;;
52858;SDS011;38721;53.098;6.596;2023-04-25T13:05:37;4.70;;;1.95;;
52858;SDS011;38721;53.098;6.596;2023-04-25T13:08:06;3.75;;;1.10;;
52858;SDS011;38721;53.098;6.596;2023-04-25T13:10:32;5.78;;;1.15;;
52858;SDS011;38721;53.098;6.596;2023-04-25T13:12:59;2.85;;;1.20;;
52858;SDS011;38721;53.098;6.596;2023-04-25T13:15:24;7.20;;;1.33;;
52858;SDS011;38721;53.098;6.596;2023-04-25T13:17:50;4.70;;;1.40;;
52858;SDS011;38721;53.098;6.596;2023-04-25T13:20:16;6.55;;;1.30;;
52858;SDS011;38721;53.098;6.596;2023-04-25T13:22:46;7.47;;;1.55;;
52858;SDS011;38721;53.098;6.596;2023-04-25T13:25:12;6.05;;;2.00;;
52858;SDS011;38721;53.098;6.596;2023-04-25T13:27:38;6.07;;;1.40;;
52858;SDS011;38721;53.098;6.596;2023-04-25T13:30:05;9.25;;;1.50;;
52858;SDS011;38721;53.098;6.596;2023-04-25T13:32:34;8.38;;;1.90;;
52858;SDS011;38721;53.098;6.596;2023-04-25T13:35:07;10.02;;;2.03;;
52858;SDS011;38721;53.098;6.596;2023-04-25T13:37:39;7.97;;;2.30;;
52858;SDS011;38721;53.098;6.596;2023-04-25T13:40:06;8.18;;;1.73;;
52858;SDS011;38721;53.098;6.596;2023-04-25T13:42:35;7.72;;;1.63;;
52858;SDS011;38721;53.098;6.596;2023-04-25T13:45:01;9.15;;;1.85;;
52858;SDS011;38721;53.098;6.596;2023-04-25T13:47:28;8.23;;;1.80;;
52858;SDS011;38721;53.098;6.596;2023-04-25T13:49:55;6.45;;;1.73;;
52858;SDS011;38721;53.098;6.596;2023-04-25T13:52:27;6.03;;;1.77;;
52858;SDS011;38721;53.098;6.596;2023-04-25T13:54:53;9.70;;;1.88;;
52858;SDS011;38721;53.098;6.596;2023-04-25T13:57:19;4.97;;;1.27;;
52858;SDS011;38721;53.098;6.596;2023-04-25T13:59:45;6.55;;;1.48;;
52858;SDS011;38721;53.098;6.596;2023-04-25T14:02:11;6.15;;;1.30;;
52858;SDS011;38721;53.098;6.596;2023-04-25T14:04:40;6.70;;;1.73;;
52858;SDS011;38721;53.098;6.596;2023-04-25T14:07:06;6.38;;;1.27;;
52858;SDS011;38721;53.098;6.596;2023-04-25T14:09:31;6.47;;;1.10;;
52858;SDS011;38721;53.098;6.596;2023-04-25T14:11:57;4.97;;;2.08;;
52858;SDS011;38721;53.098;6.596;2023-04-25T14:14:23;8.48;;;1.60;;
52858;SDS011;38721;53.098;6.596;2023-04-25T14:16:49;5.13;;;1.38;;
52858;SDS011;38721;53.098;6.596;2023-04-25T14:19:20;5.43;;;1.70;;
52858;SDS011;38721;53.098;6.596;2023-04-25T14:21:46;7.88;;;1.90;;
52858;SDS011;38721;53.098;6.596;2023-04-25T14:24:12;4.95;;;1.30;;
52858;SDS011;38721;53.098;6.596;2023-04-25T14:26:38;8.85;;;1.70;;
52858;SDS011;38721;53.098;6.596;2023-04-25T14:29:04;6.03;;;1.60;;
52858;SDS011;38721;53.098;6.596;2023-04-25T14:31:35;5.72;;;1.80;;
52858;SDS011;38721;53.098;6.596;2023-04-25T14:34:01;6.93;;;1.67;;
52858;SDS011;38721;53.098;6.596;2023-04-25T14:36:30;8.77;;;1.85;;
52858;SDS011;38721;53.098;6.596;2023-04-25T14:38:57;9.20;;;2.55;;
52858;SDS011;38721;53.098;6.596;2023-04-25T14:41:24;9.98;;;2.00;;
52858;SDS011;38721;53.098;6.596;2023-04-25T14:43:50;6.43;;;1.80;;
52858;SDS011;38721;53.098;6.596;2023-04-25T14:46:17;4.20;;;1.38;;
52858;SDS011;38721;53.098;6.596;2023-04-25T14:48:44;10.75;;;1.67;;
52858;SDS011;38721;53.098;6.596;2023-04-25T14:51:10;5.15;;;1.50;;
52858;SDS011;38721;53.098;6.596;2023-04-25T14:53:36;6.63;;;1.90;;
52858;SDS011;38721;53.098;6.596;2023-04-25T14:56:02;5.07;;;1.70;;
52858;SDS011;38721;53.098;6.596;2023-04-25T14:58:28;8.20;;;1.90;;
52858;SDS011;38721;53.098;6.596;2023-04-25T15:00:57;7.85;;;1.70;;
52858;SDS011;38721;53.098;6.596;2023-04-25T15:03:23;6.90;;;1.73;;